sensor_id;sensor_type;location;lat;lon;timestamp;temperature;humidity
15156;DHT22;7678;50.058;8.306;2023-02-01T00:00:24;4.70;99.90
15156;DHT22;7678;50.058;8.306;2023-02-01T00:02:52;4.70;99.90
15156;DHT22;7678;50.058;8.306;2023-02-01T00:05:20;4.60;99.90
15156;DHT22;7678;50.058;8.306;2023-02-01T00:07:48;4.60;99.90
15156;DHT22;7678;50.058;8.306;2023-02-01T00:10:16;4.60;99.90
15156;DHT22;7678;50.058;8.306;2023-02-01T00:12:46;4.60;99.90
15156;DHT22;7678;50.058;8.306;2023-02-01T00:15:17;4.50;99.90
15156;DHT22;7678;50.058;8.306;2023-02-01T00:17:46;4.50;99.90
15156;DHT22;7678;50.058;8.306;2023-02-01T00:20:14;4.60;99.90
15156;DHT22;7678;50.058;8.306;2023-02-01T00:22:42;4.60;99.90
15156;DHT22;7678;50.058;8.306;2023-02-01T00:25:10;4.60;99.90
15156;DHT22;7678;50.058;8.306;2023-02-01T00:27:40;4.60;99.90
15156;DHT22;7678;50.058;8.306;2023-02-01T00:30:11;4.50;99.90
15156;DHT22;7678;50.058;8.306;2023-02-01T00:32:39;4.40;99.90
15156;DHT22;7678;50.058;8.306;2023-02-01T00:35:08;4.40;99.90
15156;DHT22;7678;50.058;8.306;2023-02-01T00:37:36;4.40;99.90
15156;DHT22;7678;50.058;8.306;2023-02-01T00:40:05;4.40;99.90
15156;DHT22;7678;50.058;8.306;2023-02-01T00:42:33;4.50;99.90
15156;DHT22;7678;50.058;8.306;2023-02-01T00:45:01;4.50;99.90
15156;DHT22;7678;50.058;8.306;2023-02-01T00:47:31;4.50;99.90
15156;DHT22;7678;50.058;8.306;2023-02-01T00:49:59;4.50;99.90
15156;DHT22;7678;50.058;8.306;2023-02-01T00:52:27;4.50;99.90
15156;DHT22;7678;50.058;8.306;2023-02-01T00:54:55;4.50;99.90
15156;DHT22;7678;50.058;8.306;2023-02-01T00:57:23;4.50;99.90
15156;DHT22;7678;50.058;8.306;2023-02-01T00:59:51;4.50;99.90
15156;DHT22;7678;50.058;8.306;2023-02-01T01:02:19;4.60;99.90
15156;DHT22;7678;50.058;8.306;2023-02-01T01:04:52;4.60;99.90
15156;DHT22;7678;50.058;8.306;2023-02-01T01:07:20;4.60;99.90
15156;DHT22;7678;50.058;8.306;2023-02-01T01:09:48;4.60;99.90
15156;DHT22;7678;50.058;8.306;2023-02-01T01:12:16;4.60;99.90
15156;DHT22;7678;50.058;8.306;2023-02-01T01:14:47;4.60;99.90
15156;DHT22;7678;50.058;8.306;2023-02-01T01:17:16;4.70;99.90
15156;DHT22;7678;50.058;8.306;2023-02-01T01:19:44;4.80;99.90
15156;DHT22;7678;50.058;8.306;2023-02-01T01:22:14;4.70;99.90
15156;DHT22;7678;50.058;8.306;2023-02-01T01:24:42;4.70;99.90
15156;DHT22;7678;50.058;8.306;2023-02-01T01:27:10;4.80;99.90
15156;DHT22;7678;50.058;8.306;2023-02-01T01:29:38;4.90;99.90
15156;DHT22;7678;50.058;8.306;2023-02-01T01:32:08;4.80;99.90
15156;DHT22;7678;50.058;8.306;2023-02-01T01:34:36;4.80;99.90
15156;DHT22;7678;50.058;8.306;2023-02-01T01:37:03;4.80;99.90
15156;DHT22;7678;50.058;8.306;2023-02-01T01:39:33;4.80;99.90
15156;DHT22;7678;50.058;8.306;2023-02-01T01:42:01;4.80;99.90
15156;DHT22;7678;50.058;8.306;2023-02-01T01:44:56;4.80;99.90
15156;DHT22;7678;50.058;8.306;2023-02-01T01:47:25;4.80;99.90
15156;DHT22;7678;50.058;8.306;2023-02-01T01:49:53;4.80;99.90
15156;DHT22;7678;50.058;8.306;2023-02-01T01:52:21;4.80;99.90
15156;DHT22;7678;50.058;8.306;2023-02-01T01:54:53;4.80;99.90
15156;DHT22;7678;50.058;8.306;2023-02-01T01:57:25;4.70;99.90
15156;DHT22;7678;50.058;8.306;2023-02-01T01:59:59;4.70;99.90
15156;DHT22;7678;50.058;8.306;2023-02-01T02:02:30;4.70;99.90
15156;DHT22;7678;50.058;8.306;2023-02-01T02:04:58;4.70;99.90
15156;DHT22;7678;50.058;8.306;2023-02-01T02:07:28;4.70;99.90
15156;DHT22;7678;50.058;8.306;2023-02-01T02:09:59;4.70;99.90
15156;DHT22;7678;50.058;8.306;2023-02-01T02:12:28;4.60;99.90
15156;DHT22;7678;50.058;8.306;2023-02-01T02:14:56;4.60;99.90
15156;DHT22;7678;50.058;8.306;2023-02-01T02:17:31;4.60;99.90
15156;DHT22;7678;50.058;8.306;2023-02-01T02:20:39;4.60;99.90
15156;DHT22;7678;50.058;8.306;2023-02-01T02:26:25;4.60;99.90
15156;DHT22;7678;50.058;8.306;2023-02-01T02:29:23;4.60;99.90
15156;DHT22;7678;50.058;8.306;2023-02-01T02:32:16;4.60;99.90
15156;DHT22;7678;50.058;8.306;2023-02-01T02:34:51;4.60;99.90
15156;DHT22;7678;50.058;8.306;2023-02-01T02:37:26;4.60;99.90
15156;DHT22;7678;50.058;8.306;2023-02-01T02:40:02;4.60;99.90
15156;DHT22;7678;50.058;8.306;2023-02-01T02:42:38;4.60;99.90
15156;DHT22;7678;50.058;8.306;2023-02-01T02:45:28;4.60;99.90
15156;DHT22;7678;50.058;8.306;2023-02-01T02:48:20;4.60;99.90
15156;DHT22;7678;50.058;8.306;2023-02-01T02:50:58;4.60;99.90
15156;DHT22;7678;50.058;8.306;2023-02-01T02:53:51;4.60;99.90
15156;DHT22;7678;50.058;8.306;2023-02-01T02:56:41;4.60;99.90
15156;DHT22;7678;50.058;8.306;2023-02-01T02:59:28;4.60;99.90
15156;DHT22;7678;50.058;8.306;2023-02-01T03:02:14;4.60;99.90
15156;DHT22;7678;50.058;8.306;2023-02-01T03:05:01;4.60;99.90
15156;DHT22;7678;50.058;8.306;2023-02-01T03:07:57;4.60;99.90
15156;DHT22;7678;50.058;8.306;2023-02-01T03:10:35;4.60;99.90
15156;DHT22;7678;50.058;8.306;2023-02-01T03:13:08;4.70;99.90
15156;DHT22;7678;50.058;8.306;2023-02-01T03:15:40;4.60;99.90
15156;DHT22;7678;50.058;8.306;2023-02-01T03:18:13;4.60;99.90
15156;DHT22;7678;50.058;8.306;2023-02-01T03:20:46;4.60;99.90
15156;DHT22;7678;50.058;8.306;2023-02-01T03:23:19;4.60;99.90
15156;DHT22;7678;50.058;8.306;2023-02-01T03:25:51;4.70;99.90
15156;DHT22;7678;50.058;8.306;2023-02-01T03:28:23;4.60;99.90
15156;DHT22;7678;50.058;8.306;2023-02-01T03:30:53;4.60;99.90
15156;DHT22;7678;50.058;8.306;2023-02-01T03:33:23;4.60;99.90
15156;DHT22;7678;50.058;8.306;2023-02-01T03:36:01;4.60;99.90
15156;DHT22;7678;50.058;8.306;2023-02-01T03:38:34;4.60;99.90
15156;DHT22;7678;50.058;8.306;2023-02-01T03:41:10;4.60;99.90
15156;DHT22;7678;50.058;8.306;2023-02-01T03:43:47;4.50;99.90
15156;DHT22;7678;50.058;8.306;2023-02-01T03:46:22;4.50;99.90
15156;DHT22;7678;50.058;8.306;2023-02-01T03:48:53;4.40;99.90
15156;DHT22;7678;50.058;8.306;2023-02-01T03:51:22;4.40;99.90
15156;DHT22;7678;50.058;8.306;2023-02-01T03:53:53;4.40;99.90
15156;DHT22;7678;50.058;8.306;2023-02-01T03:56:21;4.40;99.90
15156;DHT22;7678;50.058;8.306;2023-02-01T03:58:51;4.40;99.90
15156;DHT22;7678;50.058;8.306;2023-02-01T04:01:28;4.40;99.90
15156;DHT22;7678;50.058;8.306;2023-02-01T04:03:56;4.40;99.90
15156;DHT22;7678;50.058;8.306;2023-02-01T04:06:25;4.50;99.90
15156;DHT22;7678;50.058;8.306;2023-02-01T04:08:54;4.40;99.90
15156;DHT22;7678;50.058;8.306;2023-02-01T04:11:22;4.40;99.90
15156;DHT22;7678;50.058;8.306;2023-02-01T04:13:50;4.40;99.90
15156;DHT22;7678;50.058;8.306;2023-02-01T04:16:18;4.40;99.90
15156;DHT22;7678;50.058;8.306;2023-02-01T04:18:46;4.40;99.90
15156;DHT22;7678;50.058;8.306;2023-02-01T04:21:15;4.40;99.90
15156;DHT22;7678;50.058;8.306;2023-02-01T04:23:43;4.40;99.90
15156;DHT22;7678;50.058;8.306;2023-02-01T04:26:12;4.40;99.90
15156;DHT22;7678;50.058;8.306;2023-02-01T04:28:40;4.40;99.90
15156;DHT22;7678;50.058;8.306;2023-02-01T04:31:08;4.50;99.90
15156;DHT22;7678;50.058;8.306;2023-02-01T04:33:39;4.50;99.90
15156;DHT22;7678;50.058;8.306;2023-02-01T04:36:07;4.60;99.90
15156;DHT22;7678;50.058;8.306;2023-02-01T04:38:35;4.60;99.90
15156;DHT22;7678;50.058;8.306;2023-02-01T04:41:04;4.60;99.90
15156;DHT22;7678;50.058;8.306;2023-02-01T04:43:33;4.60;99.90
15156;DHT22;7678;50.058;8.306;2023-02-01T04:46:01;4.60;99.90
15156;DHT22;7678;50.058;8.306;2023-02-01T04:48:29;4.60;99.90
15156;DHT22;7678;50.058;8.306;2023-02-01T04:50:57;4.70;99.90
15156;DHT22;7678;50.058;8.306;2023-02-01T04:53:25;4.60;99.90
15156;DHT22;7678;50.058;8.306;2023-02-01T04:55:53;4.60;99.90
15156;DHT22;7678;50.058;8.306;2023-02-01T04:58:21;4.70;99.90
15156;DHT22;7678;50.058;8.306;2023-02-01T05:00:50;4.60;99.90
15156;DHT22;7678;50.058;8.306;2023-02-01T05:03:19;4.60;99.90
15156;DHT22;7678;50.058;8.306;2023-02-01T05:05:47;4.60;99.90
15156;DHT22;7678;50.058;8.306;2023-02-01T05:08:15;4.60;99.90
15156;DHT22;7678;50.058;8.306;2023-02-01T05:10:45;4.60;99.90
15156;DHT22;7678;50.058;8.306;2023-02-01T05:13:12;4.60;99.90
15156;DHT22;7678;50.058;8.306;2023-02-01T05:15:59;4.60;99.90
15156;DHT22;7678;50.058;8.306;2023-02-01T05:18:27;4.60;99.90
15156;DHT22;7678;50.058;8.306;2023-02-01T05:20:55;4.60;99.90
15156;DHT22;7678;50.058;8.306;2023-02-01T05:23:23;4.60;99.90
15156;DHT22;7678;50.058;8.306;2023-02-01T05:25:51;4.60;99.90
15156;DHT22;7678;50.058;8.306;2023-02-01T05:28:20;4.60;99.90
15156;DHT22;7678;50.058;8.306;2023-02-01T05:30:49;4.60;99.90
15156;DHT22;7678;50.058;8.306;2023-02-01T05:33:19;4.60;99.90
15156;DHT22;7678;50.058;8.306;2023-02-01T05:35:47;4.60;99.90
15156;DHT22;7678;50.058;8.306;2023-02-01T05:38:17;4.60;99.90
15156;DHT22;7678;50.058;8.306;2023-02-01T05:40:45;4.70;99.90
15156;DHT22;7678;50.058;8.306;2023-02-01T05:43:16;4.70;99.90
15156;DHT22;7678;50.058;8.306;2023-02-01T05:45:44;4.70;99.90
15156;DHT22;7678;50.058;8.306;2023-02-01T05:48:12;4.60;99.90
15156;DHT22;7678;50.058;8.306;2023-02-01T05:50:41;4.60;99.90
15156;DHT22;7678;50.058;8.306;2023-02-01T05:53:10;4.60;99.90
15156;DHT22;7678;50.058;8.306;2023-02-01T05:55:38;4.60;99.90
15156;DHT22;7678;50.058;8.306;2023-02-01T05:58:06;4.50;99.90
15156;DHT22;7678;50.058;8.306;2023-02-01T06:00:34;4.40;99.90
15156;DHT22;7678;50.058;8.306;2023-02-01T06:03:02;4.40;99.90
15156;DHT22;7678;50.058;8.306;2023-02-01T06:05:30;4.20;99.90
15156;DHT22;7678;50.058;8.306;2023-02-01T06:08:00;4.30;99.90
15156;DHT22;7678;50.058;8.306;2023-02-01T06:10:28;4.30;99.90
15156;DHT22;7678;50.058;8.306;2023-02-01T06:12:56;4.30;99.90
15156;DHT22;7678;50.058;8.306;2023-02-01T06:15:24;4.20;99.90
15156;DHT22;7678;50.058;8.306;2023-02-01T06:17:52;4.20;99.90
15156;DHT22;7678;50.058;8.306;2023-02-01T06:20:20;4.20;99.90
15156;DHT22;7678;50.058;8.306;2023-02-01T06:22:50;4.20;99.90
15156;DHT22;7678;50.058;8.306;2023-02-01T06:25:20;4.10;99.90
15156;DHT22;7678;50.058;8.306;2023-02-01T06:27:48;4.20;99.90
15156;DHT22;7678;50.058;8.306;2023-02-01T06:30:17;4.20;99.90
15156;DHT22;7678;50.058;8.306;2023-02-01T06:32:50;4.20;99.90
15156;DHT22;7678;50.058;8.306;2023-02-01T06:35:20;4.00;99.90
15156;DHT22;7678;50.058;8.306;2023-02-01T06:37:48;4.00;99.90
15156;DHT22;7678;50.058;8.306;2023-02-01T06:40:16;3.90;99.90
15156;DHT22;7678;50.058;8.306;2023-02-01T06:42:45;3.90;99.90
15156;DHT22;7678;50.058;8.306;2023-02-01T06:45:13;4.00;99.90
15156;DHT22;7678;50.058;8.306;2023-02-01T06:47:41;4.00;99.90
15156;DHT22;7678;50.058;8.306;2023-02-01T06:50:10;3.90;99.90
15156;DHT22;7678;50.058;8.306;2023-02-01T06:52:38;4.00;99.90
15156;DHT22;7678;50.058;8.306;2023-02-01T06:55:07;4.10;99.90
15156;DHT22;7678;50.058;8.306;2023-02-01T06:57:38;4.10;99.90
15156;DHT22;7678;50.058;8.306;2023-02-01T07:00:08;4.00;99.90
15156;DHT22;7678;50.058;8.306;2023-02-01T07:02:37;4.10;99.90
15156;DHT22;7678;50.058;8.306;2023-02-01T07:05:06;4.00;99.90
15156;DHT22;7678;50.058;8.306;2023-02-01T07:07:34;4.00;99.90
15156;DHT22;7678;50.058;8.306;2023-02-01T07:10:03;4.00;99.90
15156;DHT22;7678;50.058;8.306;2023-02-01T07:12:31;4.10;99.90
15156;DHT22;7678;50.058;8.306;2023-02-01T07:14:59;4.10;99.90
15156;DHT22;7678;50.058;8.306;2023-02-01T07:17:29;4.00;99.90
15156;DHT22;7678;50.058;8.306;2023-02-01T07:19:58;4.00;99.90
15156;DHT22;7678;50.058;8.306;2023-02-01T07:22:26;3.90;99.90
15156;DHT22;7678;50.058;8.306;2023-02-01T07:24:54;3.80;99.90
15156;DHT22;7678;50.058;8.306;2023-02-01T07:27:22;3.80;99.90
15156;DHT22;7678;50.058;8.306;2023-02-01T07:29:52;3.70;99.90
15156;DHT22;7678;50.058;8.306;2023-02-01T07:32:22;3.70;99.90
15156;DHT22;7678;50.058;8.306;2023-02-01T07:34:51;3.80;99.90
15156;DHT22;7678;50.058;8.306;2023-02-01T07:37:19;3.90;99.90
15156;DHT22;7678;50.058;8.306;2023-02-01T07:39:47;4.00;99.90
15156;DHT22;7678;50.058;8.306;2023-02-01T07:42:15;4.10;99.90
15156;DHT22;7678;50.058;8.306;2023-02-01T07:44:43;4.10;99.90
15156;DHT22;7678;50.058;8.306;2023-02-01T07:47:12;4.10;99.90
15156;DHT22;7678;50.058;8.306;2023-02-01T07:49:40;4.20;99.90
15156;DHT22;7678;50.058;8.306;2023-02-01T07:52:09;4.20;99.90
15156;DHT22;7678;50.058;8.306;2023-02-01T07:54:37;4.30;99.90
15156;DHT22;7678;50.058;8.306;2023-02-01T07:57:05;4.30;99.90
15156;DHT22;7678;50.058;8.306;2023-02-01T07:59:35;4.40;99.90
15156;DHT22;7678;50.058;8.306;2023-02-01T08:02:23;4.30;99.90
15156;DHT22;7678;50.058;8.306;2023-02-01T08:04:50;4.40;99.90
15156;DHT22;7678;50.058;8.306;2023-02-01T08:07:20;4.40;99.90
15156;DHT22;7678;50.058;8.306;2023-02-01T08:09:48;4.60;99.90
15156;DHT22;7678;50.058;8.306;2023-02-01T08:12:16;4.40;99.90
15156;DHT22;7678;50.058;8.306;2023-02-01T08:14:44;4.50;99.90
15156;DHT22;7678;50.058;8.306;2023-02-01T08:17:12;4.50;99.90
15156;DHT22;7678;50.058;8.306;2023-02-01T08:19:40;4.70;99.90
15156;DHT22;7678;50.058;8.306;2023-02-01T08:22:09;4.70;99.90
15156;DHT22;7678;50.058;8.306;2023-02-01T08:24:38;4.80;99.90
15156;DHT22;7678;50.058;8.306;2023-02-01T08:27:08;4.70;99.90
15156;DHT22;7678;50.058;8.306;2023-02-01T08:29:36;4.80;99.90
15156;DHT22;7678;50.058;8.306;2023-02-01T08:32:04;4.90;99.90
15156;DHT22;7678;50.058;8.306;2023-02-01T08:34:33;5.00;99.90
15156;DHT22;7678;50.058;8.306;2023-02-01T08:37:01;5.10;99.90
15156;DHT22;7678;50.058;8.306;2023-02-01T08:39:29;5.10;99.90
15156;DHT22;7678;50.058;8.306;2023-02-01T08:41:58;5.20;99.90
15156;DHT22;7678;50.058;8.306;2023-02-01T08:44:44;5.20;99.90
15156;DHT22;7678;50.058;8.306;2023-02-01T08:47:13;5.30;99.90
15156;DHT22;7678;50.058;8.306;2023-02-01T08:49:41;5.40;99.90
15156;DHT22;7678;50.058;8.306;2023-02-01T08:52:09;5.50;99.90
15156;DHT22;7678;50.058;8.306;2023-02-01T08:54:42;5.50;99.90
15156;DHT22;7678;50.058;8.306;2023-02-01T08:57:11;5.50;99.90
15156;DHT22;7678;50.058;8.306;2023-02-01T08:59:40;5.60;99.90
15156;DHT22;7678;50.058;8.306;2023-02-01T09:02:08;5.60;99.90
15156;DHT22;7678;50.058;8.306;2023-02-01T09:04:39;5.60;99.90
15156;DHT22;7678;50.058;8.306;2023-02-01T09:07:08;5.50;99.90
15156;DHT22;7678;50.058;8.306;2023-02-01T09:09:36;5.50;99.90
15156;DHT22;7678;50.058;8.306;2023-02-01T09:12:05;5.40;99.90
15156;DHT22;7678;50.058;8.306;2023-02-01T09:14:34;5.50;99.90
15156;DHT22;7678;50.058;8.306;2023-02-01T09:17:02;5.50;99.90
15156;DHT22;7678;50.058;8.306;2023-02-01T09:19:32;5.40;99.90
15156;DHT22;7678;50.058;8.306;2023-02-01T09:22:00;5.60;99.90
15156;DHT22;7678;50.058;8.306;2023-02-01T09:24:28;5.60;99.90
15156;DHT22;7678;50.058;8.306;2023-02-01T09:26:56;5.50;99.90
15156;DHT22;7678;50.058;8.306;2023-02-01T09:29:24;5.50;99.90
15156;DHT22;7678;50.058;8.306;2023-02-01T09:31:53;5.50;99.90
15156;DHT22;7678;50.058;8.306;2023-02-01T09:34:29;5.50;99.90
15156;DHT22;7678;50.058;8.306;2023-02-01T09:36:57;5.50;99.90
15156;DHT22;7678;50.058;8.306;2023-02-01T09:39:25;5.60;99.90
15156;DHT22;7678;50.058;8.306;2023-02-01T09:41:59;5.60;99.90
15156;DHT22;7678;50.058;8.306;2023-02-01T09:44:41;5.60;99.90
15156;DHT22;7678;50.058;8.306;2023-02-01T09:47:15;5.60;99.90
15156;DHT22;7678;50.058;8.306;2023-02-01T09:49:50;5.60;99.90
15156;DHT22;7678;50.058;8.306;2023-02-01T09:52:25;5.50;99.90
15156;DHT22;7678;50.058;8.306;2023-02-01T09:54:57;5.60;99.90
15156;DHT22;7678;50.058;8.306;2023-02-01T09:57:41;5.60;99.90
15156;DHT22;7678;50.058;8.306;2023-02-01T10:00:17;5.60;99.90
15156;DHT22;7678;50.058;8.306;2023-02-01T10:02:48;5.60;99.90
15156;DHT22;7678;50.058;8.306;2023-02-01T10:05:19;5.70;99.90
15156;DHT22;7678;50.058;8.306;2023-02-01T10:07:58;5.70;99.90
15156;DHT22;7678;50.058;8.306;2023-02-01T10:10:30;5.80;99.90
15156;DHT22;7678;50.058;8.306;2023-02-01T10:13:33;5.90;99.90
15156;DHT22;7678;50.058;8.306;2023-02-01T10:16:13;6.00;99.90
15156;DHT22;7678;50.058;8.306;2023-02-01T10:19:02;6.00;99.90
15156;DHT22;7678;50.058;8.306;2023-02-01T10:21:40;6.00;99.90
15156;DHT22;7678;50.058;8.306;2023-02-01T10:27:02;6.10;99.90
15156;DHT22;7678;50.058;8.306;2023-02-01T10:29:37;6.10;99.90
15156;DHT22;7678;50.058;8.306;2023-02-01T10:32:14;6.10;99.90
15156;DHT22;7678;50.058;8.306;2023-02-01T10:34:47;6.10;99.90
15156;DHT22;7678;50.058;8.306;2023-02-01T10:37:24;6.10;99.90
15156;DHT22;7678;50.058;8.306;2023-02-01T10:39:55;6.10;99.90
15156;DHT22;7678;50.058;8.306;2023-02-01T10:42:26;6.10;99.90
15156;DHT22;7678;50.058;8.306;2023-02-01T10:44:57;6.10;99.90
15156;DHT22;7678;50.058;8.306;2023-02-01T10:47:27;6.10;99.90
15156;DHT22;7678;50.058;8.306;2023-02-01T10:50:03;6.10;99.90
15156;DHT22;7678;50.058;8.306;2023-02-01T10:52:43;6.00;99.90
15156;DHT22;7678;50.058;8.306;2023-02-01T10:55:32;6.10;99.90
15156;DHT22;7678;50.058;8.306;2023-02-01T10:58:02;6.10;99.90
15156;DHT22;7678;50.058;8.306;2023-02-01T11:00:47;6.10;99.90
15156;DHT22;7678;50.058;8.306;2023-02-01T11:03:32;6.10;99.90
15156;DHT22;7678;50.058;8.306;2023-02-01T11:06:04;6.10;99.90
15156;DHT22;7678;50.058;8.306;2023-02-01T11:08:42;6.10;99.90
15156;DHT22;7678;50.058;8.306;2023-02-01T11:11:11;6.20;99.90
15156;DHT22;7678;50.058;8.306;2023-02-01T11:13:40;6.10;99.90
15156;DHT22;7678;50.058;8.306;2023-02-01T11:16:12;6.10;99.90
15156;DHT22;7678;50.058;8.306;2023-02-01T11:18:41;6.10;99.90
15156;DHT22;7678;50.058;8.306;2023-02-01T11:21:11;6.10;99.90
15156;DHT22;7678;50.058;8.306;2023-02-01T11:23:42;6.20;99.90
15156;DHT22;7678;50.058;8.306;2023-02-01T11:26:12;6.30;99.90
15156;DHT22;7678;50.058;8.306;2023-02-01T11:28:49;6.30;99.90
15156;DHT22;7678;50.058;8.306;2023-02-01T11:31:18;6.40;99.90
15156;DHT22;7678;50.058;8.306;2023-02-01T11:33:50;6.50;99.90
15156;DHT22;7678;50.058;8.306;2023-02-01T11:36:26;6.50;99.90
15156;DHT22;7678;50.058;8.306;2023-02-01T11:39:08;6.50;99.90
15156;DHT22;7678;50.058;8.306;2023-02-01T11:41:54;6.50;99.90
15156;DHT22;7678;50.058;8.306;2023-02-01T11:44:31;6.60;99.90
15156;DHT22;7678;50.058;8.306;2023-02-01T11:47:18;6.70;99.90
15156;DHT22;7678;50.058;8.306;2023-02-01T11:49:47;6.70;99.90
15156;DHT22;7678;50.058;8.306;2023-02-01T11:52:29;6.60;99.90
15156;DHT22;7678;50.058;8.306;2023-02-01T11:55:31;6.50;99.90
15156;DHT22;7678;50.058;8.306;2023-02-01T11:58:12;6.50;99.90
15156;DHT22;7678;50.058;8.306;2023-02-01T12:01:05;6.50;99.90
15156;DHT22;7678;50.058;8.306;2023-02-01T12:04:02;6.60;99.90
15156;DHT22;7678;50.058;8.306;2023-02-01T12:06:42;6.50;99.90
15156;DHT22;7678;50.058;8.306;2023-02-01T12:09:29;6.60;99.90
15156;DHT22;7678;50.058;8.306;2023-02-01T12:19:11;6.60;99.90
15156;DHT22;7678;50.058;8.306;2023-02-01T12:22:29;6.60;99.90
15156;DHT22;7678;50.058;8.306;2023-02-01T12:26:03;6.70;99.90
15156;DHT22;7678;50.058;8.306;2023-02-01T12:29:25;6.60;99.90
15156;DHT22;7678;50.058;8.306;2023-02-01T12:32:23;6.60;99.90
15156;DHT22;7678;50.058;8.306;2023-02-01T12:35:55;6.60;99.90
15156;DHT22;7678;50.058;8.306;2023-02-01T12:38:59;6.60;99.90
15156;DHT22;7678;50.058;8.306;2023-02-01T12:42:09;6.60;99.90
15156;DHT22;7678;50.058;8.306;2023-02-01T16:11:31;7.20;99.90
15156;DHT22;7678;50.058;8.306;2023-02-01T16:14:43;7.30;99.90
15156;DHT22;7678;50.058;8.306;2023-02-01T16:21:40;7.20;99.90
15156;DHT22;7678;50.058;8.306;2023-02-01T16:36:29;7.00;99.90
15156;DHT22;7678;50.058;8.306;2023-02-01T16:39:58;7.00;99.90
15156;DHT22;7678;50.058;8.306;2023-02-01T16:47:39;6.80;99.90
15156;DHT22;7678;50.058;8.306;2023-02-01T16:50:38;6.90;99.90
15156;DHT22;7678;50.058;8.306;2023-02-01T16:54:26;6.70;99.90
15156;DHT22;7678;50.058;8.306;2023-02-01T16:58:42;6.70;99.90
15156;DHT22;7678;50.058;8.306;2023-02-01T17:01:34;6.80;99.90
15156;DHT22;7678;50.058;8.306;2023-02-01T17:04:31;6.70;99.90
15156;DHT22;7678;50.058;8.306;2023-02-01T17:07:03;6.80;99.90
15156;DHT22;7678;50.058;8.306;2023-02-01T17:09:37;6.80;99.90
15156;DHT22;7678;50.058;8.306;2023-02-01T17:12:19;6.70;99.90
15156;DHT22;7678;50.058;8.306;2023-02-01T17:14:49;6.60;99.90
15156;DHT22;7678;50.058;8.306;2023-02-01T17:17:19;6.50;99.90
15156;DHT22;7678;50.058;8.306;2023-02-01T17:20:18;6.50;99.90
15156;DHT22;7678;50.058;8.306;2023-02-01T17:22:54;6.50;99.90
15156;DHT22;7678;50.058;8.306;2023-02-01T17:25:26;6.50;99.90
15156;DHT22;7678;50.058;8.306;2023-02-01T17:28:01;6.50;99.90
15156;DHT22;7678;50.058;8.306;2023-02-01T17:30:35;6.50;99.90
15156;DHT22;7678;50.058;8.306;2023-02-01T17:33:11;6.50;99.90
15156;DHT22;7678;50.058;8.306;2023-02-01T17:35:51;6.40;99.90
15156;DHT22;7678;50.058;8.306;2023-02-01T17:38:25;6.40;99.90
15156;DHT22;7678;50.058;8.306;2023-02-01T17:40:59;6.40;99.90
15156;DHT22;7678;50.058;8.306;2023-02-01T17:43:44;6.40;99.90
15156;DHT22;7678;50.058;8.306;2023-02-01T17:46:30;6.40;99.90
15156;DHT22;7678;50.058;8.306;2023-02-01T17:49:06;6.40;99.90
15156;DHT22;7678;50.058;8.306;2023-02-01T17:51:49;6.40;99.90
15156;DHT22;7678;50.058;8.306;2023-02-01T17:54:18;6.30;99.90
15156;DHT22;7678;50.058;8.306;2023-02-01T17:56:54;6.30;99.90
15156;DHT22;7678;50.058;8.306;2023-02-01T17:59:33;6.40;99.90
15156;DHT22;7678;50.058;8.306;2023-02-01T18:02:25;6.30;99.90
15156;DHT22;7678;50.058;8.306;2023-02-01T18:04:56;6.30;99.90
15156;DHT22;7678;50.058;8.306;2023-02-01T18:07:31;6.40;99.90
15156;DHT22;7678;50.058;8.306;2023-02-01T18:10:11;6.40;99.90
15156;DHT22;7678;50.058;8.306;2023-02-01T18:12:52;6.20;99.90
15156;DHT22;7678;50.058;8.306;2023-02-01T18:15:23;6.30;99.90
15156;DHT22;7678;50.058;8.306;2023-02-01T18:17:52;6.20;99.90
15156;DHT22;7678;50.058;8.306;2023-02-01T18:20:37;6.10;99.90
15156;DHT22;7678;50.058;8.306;2023-02-01T18:23:51;6.00;99.90
15156;DHT22;7678;50.058;8.306;2023-02-01T18:26:39;6.10;99.90
15156;DHT22;7678;50.058;8.306;2023-02-01T18:29:33;6.00;99.90
15156;DHT22;7678;50.058;8.306;2023-02-01T18:40:30;6.10;99.90
15156;DHT22;7678;50.058;8.306;2023-02-01T18:44:08;6.20;99.90
15156;DHT22;7678;50.058;8.306;2023-02-01T19:30:11;6.40;99.90
15156;DHT22;7678;50.058;8.306;2023-02-01T19:55:46;6.00;99.90
15156;DHT22;7678;50.058;8.306;2023-02-01T19:58:14;5.90;99.90
15156;DHT22;7678;50.058;8.306;2023-02-01T20:00:44;5.80;99.90
15156;DHT22;7678;50.058;8.306;2023-02-01T20:03:12;5.80;99.90
15156;DHT22;7678;50.058;8.306;2023-02-01T20:05:41;5.90;99.90
15156;DHT22;7678;50.058;8.306;2023-02-01T20:08:09;5.90;99.90
15156;DHT22;7678;50.058;8.306;2023-02-01T20:10:41;5.90;99.90
15156;DHT22;7678;50.058;8.306;2023-02-01T20:13:12;5.90;99.90
15156;DHT22;7678;50.058;8.306;2023-02-01T20:15:41;6.00;99.90
15156;DHT22;7678;50.058;8.306;2023-02-01T20:18:11;6.00;99.90
15156;DHT22;7678;50.058;8.306;2023-02-01T20:20:40;6.10;99.90
15156;DHT22;7678;50.058;8.306;2023-02-01T20:23:09;6.00;99.90
15156;DHT22;7678;50.058;8.306;2023-02-01T20:25:37;6.00;99.90
15156;DHT22;7678;50.058;8.306;2023-02-01T20:28:07;6.00;99.90
15156;DHT22;7678;50.058;8.306;2023-02-01T20:30:37;6.00;99.90
15156;DHT22;7678;50.058;8.306;2023-02-01T20:33:05;5.90;99.90
15156;DHT22;7678;50.058;8.306;2023-02-01T20:35:34;5.90;99.90
15156;DHT22;7678;50.058;8.306;2023-02-01T20:38:02;5.80;99.90
15156;DHT22;7678;50.058;8.306;2023-02-01T20:40:30;5.90;99.90
15156;DHT22;7678;50.058;8.306;2023-02-01T20:42:59;5.90;99.90
15156;DHT22;7678;50.058;8.306;2023-02-01T20:45:27;5.90;99.90
15156;DHT22;7678;50.058;8.306;2023-02-01T20:47:56;5.90;99.90
15156;DHT22;7678;50.058;8.306;2023-02-01T20:50:24;5.80;99.90
15156;DHT22;7678;50.058;8.306;2023-02-01T20:52:52;5.80;99.90
15156;DHT22;7678;50.058;8.306;2023-02-01T20:55:21;5.70;99.90
15156;DHT22;7678;50.058;8.306;2023-02-01T20:57:51;5.80;99.90
15156;DHT22;7678;50.058;8.306;2023-02-01T21:00:20;5.90;99.90
15156;DHT22;7678;50.058;8.306;2023-02-01T21:02:48;5.80;99.90
15156;DHT22;7678;50.058;8.306;2023-02-01T21:05:18;5.70;99.90
15156;DHT22;7678;50.058;8.306;2023-02-01T21:07:46;5.70;99.90
15156;DHT22;7678;50.058;8.306;2023-02-01T21:10:14;5.70;99.90
15156;DHT22;7678;50.058;8.306;2023-02-01T21:12:42;5.70;99.90
15156;DHT22;7678;50.058;8.306;2023-02-01T21:15:10;5.70;99.90
15156;DHT22;7678;50.058;8.306;2023-02-01T21:17:38;5.60;99.90
15156;DHT22;7678;50.058;8.306;2023-02-01T21:20:07;5.70;99.90
15156;DHT22;7678;50.058;8.306;2023-02-01T21:22:43;5.70;99.90
15156;DHT22;7678;50.058;8.306;2023-02-01T21:25:11;5.80;99.90
15156;DHT22;7678;50.058;8.306;2023-02-01T21:27:39;5.80;99.90
15156;DHT22;7678;50.058;8.306;2023-02-01T21:30:09;5.70;99.90
15156;DHT22;7678;50.058;8.306;2023-02-01T21:32:39;5.80;99.90
15156;DHT22;7678;50.058;8.306;2023-02-01T21:35:08;5.60;99.90
15156;DHT22;7678;50.058;8.306;2023-02-01T21:37:37;5.70;99.90
15156;DHT22;7678;50.058;8.306;2023-02-01T21:40:06;5.60;99.90
15156;DHT22;7678;50.058;8.306;2023-02-01T21:42:35;5.60;99.90
15156;DHT22;7678;50.058;8.306;2023-02-01T21:45:04;5.70;99.90
15156;DHT22;7678;50.058;8.306;2023-02-01T21:47:32;5.90;99.90
15156;DHT22;7678;50.058;8.306;2023-02-01T21:50:00;5.80;99.90
15156;DHT22;7678;50.058;8.306;2023-02-01T21:52:28;5.80;99.90
15156;DHT22;7678;50.058;8.306;2023-02-01T21:54:58;5.80;99.90
15156;DHT22;7678;50.058;8.306;2023-02-01T21:57:27;5.80;99.90
15156;DHT22;7678;50.058;8.306;2023-02-01T21:59:55;5.90;99.90
15156;DHT22;7678;50.058;8.306;2023-02-01T22:02:25;5.90;99.90